sensor_id;sensor_type;location;lat;lon;timestamp;temperature;humidity
42989;DHT22;28622;43.716;20.668;2023-02-03T00:00:37;3.60;99.90
42989;DHT22;28622;43.716;20.668;2023-02-03T00:03:06;3.50;99.90
42989;DHT22;28622;43.716;20.668;2023-02-03T00:05:34;3.50;99.90
42989;DHT22;28622;43.716;20.668;2023-02-03T00:08:00;3.50;99.90
42989;DHT22;28622;43.716;20.668;2023-02-03T00:10:27;3.40;99.90
42989;DHT22;28622;43.716;20.668;2023-02-03T00:12:52;3.40;99.90
42989;DHT22;28622;43.716;20.668;2023-02-03T00:15:18;3.30;99.90
42989;DHT22;28622;43.716;20.668;2023-02-03T00:17:44;3.30;99.90
42989;DHT22;28622;43.716;20.668;2023-02-03T00:20:11;3.30;99.90
42989;DHT22;28622;43.716;20.668;2023-02-03T00:22:36;3.40;99.90
42989;DHT22;28622;43.716;20.668;2023-02-03T00:25:02;3.40;99.90
42989;DHT22;28622;43.716;20.668;2023-02-03T00:27:28;3.40;99.90
42989;DHT22;28622;43.716;20.668;2023-02-03T00:29:54;3.50;99.90
42989;DHT22;28622;43.716;20.668;2023-02-03T00:32:20;3.50;99.90
42989;DHT22;28622;43.716;20.668;2023-02-03T00:34:45;3.50;99.90
42989;DHT22;28622;43.716;20.668;2023-02-03T00:37:12;3.50;99.90
42989;DHT22;28622;43.716;20.668;2023-02-03T00:39:38;3.60;99.90
42989;DHT22;28622;43.716;20.668;2023-02-03T00:42:04;3.60;99.90
42989;DHT22;28622;43.716;20.668;2023-02-03T00:44:30;3.60;99.90
42989;DHT22;28622;43.716;20.668;2023-02-03T00:46:56;3.60;99.90
42989;DHT22;28622;43.716;20.668;2023-02-03T00:49:22;3.60;99.90
42989;DHT22;28622;43.716;20.668;2023-02-03T00:51:48;3.60;99.90
42989;DHT22;28622;43.716;20.668;2023-02-03T00:54:14;3.50;99.90
42989;DHT22;28622;43.716;20.668;2023-02-03T00:56:39;3.50;99.90
42989;DHT22;28622;43.716;20.668;2023-02-03T00:59:05;3.50;99.90
42989;DHT22;28622;43.716;20.668;2023-02-03T01:01:34;3.50;99.90
42989;DHT22;28622;43.716;20.668;2023-02-03T01:04:01;3.50;99.90
42989;DHT22;28622;43.716;20.668;2023-02-03T01:06:27;3.50;99.90
42989;DHT22;28622;43.716;20.668;2023-02-03T01:08:53;3.50;99.90
42989;DHT22;28622;43.716;20.668;2023-02-03T01:11:24;3.60;99.90
42989;DHT22;28622;43.716;20.668;2023-02-03T01:13:53;3.60;99.90
42989;DHT22;28622;43.716;20.668;2023-02-03T01:16:21;3.70;99.90
42989;DHT22;28622;43.716;20.668;2023-02-03T01:18:48;3.70;99.90
42989;DHT22;28622;43.716;20.668;2023-02-03T01:21:17;3.70;99.90
42989;DHT22;28622;43.716;20.668;2023-02-03T01:23:43;3.70;99.90
42989;DHT22;28622;43.716;20.668;2023-02-03T01:26:12;3.70;99.90
42989;DHT22;28622;43.716;20.668;2023-02-03T01:28:38;3.70;99.90
42989;DHT22;28622;43.716;20.668;2023-02-03T01:31:27;3.80;99.90
42989;DHT22;28622;43.716;20.668;2023-02-03T01:33:54;3.80;99.90
42989;DHT22;28622;43.716;20.668;2023-02-03T01:36:23;3.80;99.90
42989;DHT22;28622;43.716;20.668;2023-02-03T01:38:49;3.90;99.90
42989;DHT22;28622;43.716;20.668;2023-02-03T01:41:20;3.90;99.90
42989;DHT22;28622;43.716;20.668;2023-02-03T01:43:51;3.90;99.90
42989;DHT22;28622;43.716;20.668;2023-02-03T01:48:51;4.00;99.90
42989;DHT22;28622;43.716;20.668;2023-02-03T01:51:18;4.00;99.90
42989;DHT22;28622;43.716;20.668;2023-02-03T01:53:45;4.00;99.90
42989;DHT22;28622;43.716;20.668;2023-02-03T01:56:11;4.00;99.90
42989;DHT22;28622;43.716;20.668;2023-02-03T01:58:38;4.10;99.90
42989;DHT22;28622;43.716;20.668;2023-02-03T02:01:05;4.10;99.90
42989;DHT22;28622;43.716;20.668;2023-02-03T02:03:47;4.10;99.90
42989;DHT22;28622;43.716;20.668;2023-02-03T02:06:15;4.10;99.90
42989;DHT22;28622;43.716;20.668;2023-02-03T02:08:44;4.20;99.90
42989;DHT22;28622;43.716;20.668;2023-02-03T02:11:11;4.20;99.90
42989;DHT22;28622;43.716;20.668;2023-02-03T02:13:37;4.20;99.90
42989;DHT22;28622;43.716;20.668;2023-02-03T02:33:00;4.30;99.90
42989;DHT22;28622;43.716;20.668;2023-02-03T02:40:48;4.30;99.90
42989;DHT22;28622;43.716;20.668;2023-02-03T02:44:33;4.30;99.90
42989;DHT22;28622;43.716;20.668;2023-02-03T02:46:57;4.30;99.90
42989;DHT22;28622;43.716;20.668;2023-02-03T02:49:29;4.30;99.90
42989;DHT22;28622;43.716;20.668;2023-02-03T02:51:56;4.20;99.90
42989;DHT22;28622;43.716;20.668;2023-02-03T02:54:24;4.20;99.90
42989;DHT22;28622;43.716;20.668;2023-02-03T02:56:57;4.20;99.90
42989;DHT22;28622;43.716;20.668;2023-02-03T02:59:24;4.20;99.90
42989;DHT22;28622;43.716;20.668;2023-02-03T03:01:49;4.20;99.90
42989;DHT22;28622;43.716;20.668;2023-02-03T03:04:19;4.20;99.90
42989;DHT22;28622;43.716;20.668;2023-02-03T03:07:17;4.20;99.90
42989;DHT22;28622;43.716;20.668;2023-02-03T03:09:48;4.20;99.90
42989;DHT22;28622;43.716;20.668;2023-02-03T03:12:23;4.20;99.90
42989;DHT22;28622;43.716;20.668;2023-02-03T03:15:01;4.20;99.90
42989;DHT22;28622;43.716;20.668;2023-02-03T03:17:34;4.20;99.90
42989;DHT22;28622;43.716;20.668;2023-02-03T03:20:06;4.20;99.90
42989;DHT22;28622;43.716;20.668;2023-02-03T03:22:36;4.30;99.90
42989;DHT22;28622;43.716;20.668;2023-02-03T03:25:15;4.30;99.90
42989;DHT22;28622;43.716;20.668;2023-02-03T03:27:45;4.30;99.90
42989;DHT22;28622;43.716;20.668;2023-02-03T03:30:19;4.30;99.90
42989;DHT22;28622;43.716;20.668;2023-02-03T03:32:48;4.30;99.90
42989;DHT22;28622;43.716;20.668;2023-02-03T03:35:15;4.30;99.90
42989;DHT22;28622;43.716;20.668;2023-02-03T03:37:49;4.30;99.90
42989;DHT22;28622;43.716;20.668;2023-02-03T03:40:38;4.30;99.90
42989;DHT22;28622;43.716;20.668;2023-02-03T03:43:16;4.30;99.90
42989;DHT22;28622;43.716;20.668;2023-02-03T03:48:22;4.30;99.90
42989;DHT22;28622;43.716;20.668;2023-02-03T03:50:59;4.30;99.90
42989;DHT22;28622;43.716;20.668;2023-02-03T03:53:27;4.30;99.90
42989;DHT22;28622;43.716;20.668;2023-02-03T03:55:54;4.40;99.90
42989;DHT22;28622;43.716;20.668;2023-02-03T03:58:31;4.30;99.90
42989;DHT22;28622;43.716;20.668;2023-02-03T04:01:01;4.30;99.90
42989;DHT22;28622;43.716;20.668;2023-02-03T04:03:40;4.40;99.90
42989;DHT22;28622;43.716;20.668;2023-02-03T04:06:07;4.40;99.90
42989;DHT22;28622;43.716;20.668;2023-02-03T04:08:33;4.30;99.90
42989;DHT22;28622;43.716;20.668;2023-02-03T04:10:59;4.40;99.90
42989;DHT22;28622;43.716;20.668;2023-02-03T04:13:24;4.40;99.90
42989;DHT22;28622;43.716;20.668;2023-02-03T04:15:50;4.40;99.90
42989;DHT22;28622;43.716;20.668;2023-02-03T04:18:16;4.40;99.90
42989;DHT22;28622;43.716;20.668;2023-02-03T04:20:42;4.40;99.90
42989;DHT22;28622;43.716;20.668;2023-02-03T04:23:08;4.50;99.90
42989;DHT22;28622;43.716;20.668;2023-02-03T04:25:34;4.50;99.90
42989;DHT22;28622;43.716;20.668;2023-02-03T04:27:59;4.50;99.90
42989;DHT22;28622;43.716;20.668;2023-02-03T04:30:26;4.40;99.90
42989;DHT22;28622;43.716;20.668;2023-02-03T04:32:52;4.50;99.90
42989;DHT22;28622;43.716;20.668;2023-02-03T04:35:18;4.50;99.90
42989;DHT22;28622;43.716;20.668;2023-02-03T04:37:44;4.40;99.90
42989;DHT22;28622;43.716;20.668;2023-02-03T04:40:11;4.40;99.90
42989;DHT22;28622;43.716;20.668;2023-02-03T04:42:38;4.40;99.90
42989;DHT22;28622;43.716;20.668;2023-02-03T04:45:05;4.40;99.90
42989;DHT22;28622;43.716;20.668;2023-02-03T04:47:31;4.40;99.90
42989;DHT22;28622;43.716;20.668;2023-02-03T04:49:57;4.40;99.90
42989;DHT22;28622;43.716;20.668;2023-02-03T04:52:22;4.40;99.90
42989;DHT22;28622;43.716;20.668;2023-02-03T04:54:48;4.40;99.90
42989;DHT22;28622;43.716;20.668;2023-02-03T04:57:14;4.40;99.90
42989;DHT22;28622;43.716;20.668;2023-02-03T04:59:39;4.40;99.90
42989;DHT22;28622;43.716;20.668;2023-02-03T05:02:05;4.40;99.90
42989;DHT22;28622;43.716;20.668;2023-02-03T05:04:32;4.40;99.90
42989;DHT22;28622;43.716;20.668;2023-02-03T05:06:58;4.40;99.90
42989;DHT22;28622;43.716;20.668;2023-02-03T05:09:25;4.40;99.90
42989;DHT22;28622;43.716;20.668;2023-02-03T05:11:51;4.40;99.90
42989;DHT22;28622;43.716;20.668;2023-02-03T05:14:17;4.40;99.90
42989;DHT22;28622;43.716;20.668;2023-02-03T05:16:43;4.40;99.90
42989;DHT22;28622;43.716;20.668;2023-02-03T05:19:08;4.40;99.90
42989;DHT22;28622;43.716;20.668;2023-02-03T05:21:34;4.40;99.90
42989;DHT22;28622;43.716;20.668;2023-02-03T05:24:00;4.40;99.90
42989;DHT22;28622;43.716;20.668;2023-02-03T05:26:27;4.40;99.90
42989;DHT22;28622;43.716;20.668;2023-02-03T05:28:53;4.40;99.90
42989;DHT22;28622;43.716;20.668;2023-02-03T05:31:19;4.50;99.90
42989;DHT22;28622;43.716;20.668;2023-02-03T05:33:44;4.40;99.90
42989;DHT22;28622;43.716;20.668;2023-02-03T05:36:10;4.40;99.90
42989;DHT22;28622;43.716;20.668;2023-02-03T05:38:36;4.50;99.90
42989;DHT22;28622;43.716;20.668;2023-02-03T05:41:01;4.50;99.90
42989;DHT22;28622;43.716;20.668;2023-02-03T05:43:46;4.50;99.90
42989;DHT22;28622;43.716;20.668;2023-02-03T05:46:11;4.50;99.90
42989;DHT22;28622;43.716;20.668;2023-02-03T05:48:37;4.50;99.90
42989;DHT22;28622;43.716;20.668;2023-02-03T05:51:03;4.50;99.90
42989;DHT22;28622;43.716;20.668;2023-02-03T05:53:29;4.50;99.90
42989;DHT22;28622;43.716;20.668;2023-02-03T05:55:55;4.50;99.90
42989;DHT22;28622;43.716;20.668;2023-02-03T05:58:20;4.50;99.90
42989;DHT22;28622;43.716;20.668;2023-02-03T06:00:46;4.50;99.90
42989;DHT22;28622;43.716;20.668;2023-02-03T06:03:12;4.50;99.90
42989;DHT22;28622;43.716;20.668;2023-02-03T06:05:38;4.50;99.90
42989;DHT22;28622;43.716;20.668;2023-02-03T06:08:06;4.50;99.90
42989;DHT22;28622;43.716;20.668;2023-02-03T06:10:32;4.50;99.90
42989;DHT22;28622;43.716;20.668;2023-02-03T06:12:58;4.50;99.90
42989;DHT22;28622;43.716;20.668;2023-02-03T06:15:24;4.50;99.90
42989;DHT22;28622;43.716;20.668;2023-02-03T06:17:50;4.50;99.90
42989;DHT22;28622;43.716;20.668;2023-02-03T06:20:17;4.60;99.90
42989;DHT22;28622;43.716;20.668;2023-02-03T06:22:44;4.60;99.90
42989;DHT22;28622;43.716;20.668;2023-02-03T06:25:10;4.60;99.90
42989;DHT22;28622;43.716;20.668;2023-02-03T06:27:36;4.60;99.90
42989;DHT22;28622;43.716;20.668;2023-02-03T06:30:02;4.60;99.90
42989;DHT22;28622;43.716;20.668;2023-02-03T06:32:28;4.70;99.90
42989;DHT22;28622;43.716;20.668;2023-02-03T06:34:54;4.70;99.90
42989;DHT22;28622;43.716;20.668;2023-02-03T06:37:19;4.70;99.90
42989;DHT22;28622;43.716;20.668;2023-02-03T06:39:45;4.80;99.90
42989;DHT22;28622;43.716;20.668;2023-02-03T06:42:11;4.80;99.90
42989;DHT22;28622;43.716;20.668;2023-02-03T06:44:37;4.80;99.90
42989;DHT22;28622;43.716;20.668;2023-02-03T06:47:02;4.70;99.90
42989;DHT22;28622;43.716;20.668;2023-02-03T06:49:28;4.70;99.90
42989;DHT22;28622;43.716;20.668;2023-02-03T06:51:55;4.80;99.90
42989;DHT22;28622;43.716;20.668;2023-02-03T06:54:21;4.80;99.90
42989;DHT22;28622;43.716;20.668;2023-02-03T06:56:46;4.80;99.90
42989;DHT22;28622;43.716;20.668;2023-02-03T06:59:12;4.80;99.90
42989;DHT22;28622;43.716;20.668;2023-02-03T07:01:38;4.80;99.90
42989;DHT22;28622;43.716;20.668;2023-02-03T07:04:04;4.80;99.90
42989;DHT22;28622;43.716;20.668;2023-02-03T07:06:31;5.00;99.90
42989;DHT22;28622;43.716;20.668;2023-02-03T07:09:00;5.20;99.90
42989;DHT22;28622;43.716;20.668;2023-02-03T07:11:27;5.60;99.90
42989;DHT22;28622;43.716;20.668;2023-02-03T07:13:52;5.60;99.90
42989;DHT22;28622;43.716;20.668;2023-02-03T07:16:19;5.50;99.90
42989;DHT22;28622;43.716;20.668;2023-02-03T07:18:45;5.40;99.90
42989;DHT22;28622;43.716;20.668;2023-02-03T07:21:11;5.40;99.90
42989;DHT22;28622;43.716;20.668;2023-02-03T07:23:37;5.20;99.90
42989;DHT22;28622;43.716;20.668;2023-02-03T07:26:05;5.20;99.90
42989;DHT22;28622;43.716;20.668;2023-02-03T07:28:32;5.20;99.90
42989;DHT22;28622;43.716;20.668;2023-02-03T07:30:58;5.10;99.90
42989;DHT22;28622;43.716;20.668;2023-02-03T07:33:25;5.00;99.90
42989;DHT22;28622;43.716;20.668;2023-02-03T07:35:55;5.00;99.90
42989;DHT22;28622;43.716;20.668;2023-02-03T07:38:22;5.00;99.90
42989;DHT22;28622;43.716;20.668;2023-02-03T07:40:48;4.90;99.90
42989;DHT22;28622;43.716;20.668;2023-02-03T07:43:14;4.90;99.90
42989;DHT22;28622;43.716;20.668;2023-02-03T07:45:40;4.90;99.90
42989;DHT22;28622;43.716;20.668;2023-02-03T07:48:06;4.90;99.90
42989;DHT22;28622;43.716;20.668;2023-02-03T07:50:32;4.90;99.90
42989;DHT22;28622;43.716;20.668;2023-02-03T07:52:58;4.90;99.90
42989;DHT22;28622;43.716;20.668;2023-02-03T07:55:25;5.00;99.90
42989;DHT22;28622;43.716;20.668;2023-02-03T07:57:55;5.10;99.90
42989;DHT22;28622;43.716;20.668;2023-02-03T08:00:21;5.00;99.90
42989;DHT22;28622;43.716;20.668;2023-02-03T08:02:47;5.00;99.90
42989;DHT22;28622;43.716;20.668;2023-02-03T08:05:13;5.50;99.90
42989;DHT22;28622;43.716;20.668;2023-02-03T08:07:39;6.20;99.90
42989;DHT22;28622;43.716;20.668;2023-02-03T08:10:06;6.80;99.90
42989;DHT22;28622;43.716;20.668;2023-02-03T08:12:32;7.40;99.90
42989;DHT22;28622;43.716;20.668;2023-02-03T08:14:58;7.80;99.90
42989;DHT22;28622;43.716;20.668;2023-02-03T08:17:24;8.20;99.90
42989;DHT22;28622;43.716;20.668;2023-02-03T08:19:50;8.60;98.80
42989;DHT22;28622;43.716;20.668;2023-02-03T08:22:15;8.60;98.10
42989;DHT22;28622;43.716;20.668;2023-02-03T08:24:42;8.30;97.90
42989;DHT22;28622;43.716;20.668;2023-02-03T08:27:15;7.90;97.70
42989;DHT22;28622;43.716;20.668;2023-02-03T08:29:40;7.50;97.60
42989;DHT22;28622;43.716;20.668;2023-02-03T08:32:12;7.10;98.00
42989;DHT22;28622;43.716;20.668;2023-02-03T08:34:38;6.90;98.60
42989;DHT22;28622;43.716;20.668;2023-02-03T08:37:05;6.70;99.30
42989;DHT22;28622;43.716;20.668;2023-02-03T08:39:32;6.50;99.80
42989;DHT22;28622;43.716;20.668;2023-02-03T08:41:59;6.40;99.60
42989;DHT22;28622;43.716;20.668;2023-02-03T08:44:25;6.40;99.90
42989;DHT22;28622;43.716;20.668;2023-02-03T08:46:51;6.30;99.90
42989;DHT22;28622;43.716;20.668;2023-02-03T08:49:17;6.30;99.90
42989;DHT22;28622;43.716;20.668;2023-02-03T08:51:47;6.40;99.90
42989;DHT22;28622;43.716;20.668;2023-02-03T08:54:14;6.30;99.90
42989;DHT22;28622;43.716;20.668;2023-02-03T08:56:40;6.30;99.90
42989;DHT22;28622;43.716;20.668;2023-02-03T08:59:06;6.40;99.90
42989;DHT22;28622;43.716;20.668;2023-02-03T09:01:32;6.20;99.90
42989;DHT22;28622;43.716;20.668;2023-02-03T09:03:58;6.30;99.90
42989;DHT22;28622;43.716;20.668;2023-02-03T09:06:26;6.20;99.90
42989;DHT22;28622;43.716;20.668;2023-02-03T09:08:54;6.10;99.90
42989;DHT22;28622;43.716;20.668;2023-02-03T09:11:20;6.10;99.90
42989;DHT22;28622;43.716;20.668;2023-02-03T09:13:46;6.10;99.90
42989;DHT22;28622;43.716;20.668;2023-02-03T09:16:14;6.20;99.90
42989;DHT22;28622;43.716;20.668;2023-02-03T09:18:47;6.20;99.90
42989;DHT22;28622;43.716;20.668;2023-02-03T09:21:13;6.40;99.90
42989;DHT22;28622;43.716;20.668;2023-02-03T09:23:43;6.40;99.90
42989;DHT22;28622;43.716;20.668;2023-02-03T09:26:12;6.70;99.90
42989;DHT22;28622;43.716;20.668;2023-02-03T09:28:38;6.80;99.90
42989;DHT22;28622;43.716;20.668;2023-02-03T09:33:55;7.00;99.90
42989;DHT22;28622;43.716;20.668;2023-02-03T09:36:22;6.90;99.90
42989;DHT22;28622;43.716;20.668;2023-02-03T09:38:48;6.90;99.90
42989;DHT22;28622;43.716;20.668;2023-02-03T09:47:22;7.10;99.90
42989;DHT22;28622;43.716;20.668;2023-02-03T09:49:54;7.00;99.90
42989;DHT22;28622;43.716;20.668;2023-02-03T09:52:30;7.00;99.90
42989;DHT22;28622;43.716;20.668;2023-02-03T09:55:03;7.10;99.90
42989;DHT22;28622;43.716;20.668;2023-02-03T09:57:34;7.30;99.90
42989;DHT22;28622;43.716;20.668;2023-02-03T10:00:09;7.30;99.70
42989;DHT22;28622;43.716;20.668;2023-02-03T10:18:46;7.10;99.10
42989;DHT22;28622;43.716;20.668;2023-02-03T10:21:39;7.40;97.30
42989;DHT22;28622;43.716;20.668;2023-02-03T10:24:08;7.80;98.40
42989;DHT22;28622;43.716;20.668;2023-02-03T10:26:35;8.70;96.40
42989;DHT22;28622;43.716;20.668;2023-02-03T10:29:12;9.10;95.50
42989;DHT22;28622;43.716;20.668;2023-02-03T10:31:41;9.50;95.50
42989;DHT22;28622;43.716;20.668;2023-02-03T10:34:10;10.20;94.70
42989;DHT22;28622;43.716;20.668;2023-02-03T10:39:42;10.10;94.00
42989;DHT22;28622;43.716;20.668;2023-02-03T10:42:10;10.60;93.50
42989;DHT22;28622;43.716;20.668;2023-02-03T10:44:58;10.80;92.50
42989;DHT22;28622;43.716;20.668;2023-02-03T10:47:41;11.10;91.50
42989;DHT22;28622;43.716;20.668;2023-02-03T10:50:18;11.10;91.70
42989;DHT22;28622;43.716;20.668;2023-02-03T10:52:45;11.20;90.20
42989;DHT22;28622;43.716;20.668;2023-02-03T10:57:49;11.30;88.30
42989;DHT22;28622;43.716;20.668;2023-02-03T11:00:29;10.80;87.20
42989;DHT22;28622;43.716;20.668;2023-02-03T11:05:33;10.50;87.60
42989;DHT22;28622;43.716;20.668;2023-02-03T11:07:59;10.20;87.40
42989;DHT22;28622;43.716;20.668;2023-02-03T11:10:26;9.80;87.90
42989;DHT22;28622;43.716;20.668;2023-02-03T11:15:35;9.50;90.20
42989;DHT22;28622;43.716;20.668;2023-02-03T11:18:01;9.30;91.10
42989;DHT22;28622;43.716;20.668;2023-02-03T11:20:28;9.60;90.10
42989;DHT22;28622;43.716;20.668;2023-02-03T11:22:54;9.60;89.50
42989;DHT22;28622;43.716;20.668;2023-02-03T11:25:27;9.60;88.40
42989;DHT22;28622;43.716;20.668;2023-02-03T11:28:03;9.50;88.20
42989;DHT22;28622;43.716;20.668;2023-02-03T11:30:29;9.20;89.60
42989;DHT22;28622;43.716;20.668;2023-02-03T11:32:55;9.10;90.20
42989;DHT22;28622;43.716;20.668;2023-02-03T11:35:26;9.00;90.50
42989;DHT22;28622;43.716;20.668;2023-02-03T11:37:58;9.10;89.00
42989;DHT22;28622;43.716;20.668;2023-02-03T11:40:29;9.10;88.90
42989;DHT22;28622;43.716;20.668;2023-02-03T11:45:29;9.40;89.10
42989;DHT22;28622;43.716;20.668;2023-02-03T11:56:50;9.20;87.80
42989;DHT22;28622;43.716;20.668;2023-02-03T12:24:53;11.50;80.50
42989;DHT22;28622;43.716;20.668;2023-02-03T12:27:32;11.50;79.80
42989;DHT22;28622;43.716;20.668;2023-02-03T12:30:13;11.70;82.20
42989;DHT22;28622;43.716;20.668;2023-02-03T12:35:27;11.60;78.40
42989;DHT22;28622;43.716;20.668;2023-02-03T12:38:39;11.30;80.40
42989;DHT22;28622;43.716;20.668;2023-02-03T12:41:10;11.20;80.10
42989;DHT22;28622;43.716;20.668;2023-02-03T12:43:41;10.90;78.10
42989;DHT22;28622;43.716;20.668;2023-02-03T12:54:36;10.10;80.30
42989;DHT22;28622;43.716;20.668;2023-02-03T12:57:21;10.20;82.60
42989;DHT22;28622;43.716;20.668;2023-02-03T12:59:58;10.30;81.80
42989;DHT22;28622;43.716;20.668;2023-02-03T13:02:28;10.30;82.40
42989;DHT22;28622;43.716;20.668;2023-02-03T13:05:08;10.50;82.60
42989;DHT22;28622;43.716;20.668;2023-02-03T13:07:46;10.50;81.10
42989;DHT22;28622;43.716;20.668;2023-02-03T13:10:21;10.50;80.20
42989;DHT22;28622;43.716;20.668;2023-02-03T13:12:55;10.40;79.40
42989;DHT22;28622;43.716;20.668;2023-02-03T13:15:44;10.60;80.20
42989;DHT22;28622;43.716;20.668;2023-02-03T13:18:36;10.80;80.40
42989;DHT22;28622;43.716;20.668;2023-02-03T13:21:02;11.00;77.70
42989;DHT22;28622;43.716;20.668;2023-02-03T13:23:28;10.80;77.80
42989;DHT22;28622;43.716;20.668;2023-02-03T13:32:03;10.50;76.50
42989;DHT22;28622;43.716;20.668;2023-02-03T13:37:47;10.20;76.90
42989;DHT22;28622;43.716;20.668;2023-02-03T13:43:18;10.20;77.00
42989;DHT22;28622;43.716;20.668;2023-02-03T13:45:49;10.20;77.10
42989;DHT22;28622;43.716;20.668;2023-02-03T13:48:17;10.20;78.50
42989;DHT22;28622;43.716;20.668;2023-02-03T13:50:45;10.10;78.10
42989;DHT22;28622;43.716;20.668;2023-02-03T13:53:23;10.20;77.90
42989;DHT22;28622;43.716;20.668;2023-02-03T13:55:59;10.20;78.30
42989;DHT22;28622;43.716;20.668;2023-02-03T13:58:35;10.40;80.30
42989;DHT22;28622;43.716;20.668;2023-02-03T14:01:32;10.40;78.70
42989;DHT22;28622;43.716;20.668;2023-02-03T14:03:58;10.50;78.30
42989;DHT22;28622;43.716;20.668;2023-02-03T14:12:31;10.70;77.10
42989;DHT22;28622;43.716;20.668;2023-02-03T14:15:00;10.80;76.10
42989;DHT22;28622;43.716;20.668;2023-02-03T14:25:40;10.60;76.40
42989;DHT22;28622;43.716;20.668;2023-02-03T14:28:12;10.40;75.40
42989;DHT22;28622;43.716;20.668;2023-02-03T14:36:46;10.40;75.80
42989;DHT22;28622;43.716;20.668;2023-02-03T14:50:49;10.50;77.00
42989;DHT22;28622;43.716;20.668;2023-02-03T14:53:30;10.40;76.90
42989;DHT22;28622;43.716;20.668;2023-02-03T14:59:02;10.30;78.50
42989;DHT22;28622;43.716;20.668;2023-02-03T15:04:27;10.20;80.90
42989;DHT22;28622;43.716;20.668;2023-02-03T15:06:53;10.00;80.60
42989;DHT22;28622;43.716;20.668;2023-02-03T15:09:41;9.90;81.30
42989;DHT22;28622;43.716;20.668;2023-02-03T15:12:23;9.90;81.70
42989;DHT22;28622;43.716;20.668;2023-02-03T15:14:51;9.80;82.00
42989;DHT22;28622;43.716;20.668;2023-02-03T15:17:24;9.80;83.60
42989;DHT22;28622;43.716;20.668;2023-02-03T15:19:51;9.70;82.40
42989;DHT22;28622;43.716;20.668;2023-02-03T15:22:25;9.60;83.20
42989;DHT22;28622;43.716;20.668;2023-02-03T15:24:54;9.50;83.70
42989;DHT22;28622;43.716;20.668;2023-02-03T15:27:22;9.50;83.80
42989;DHT22;28622;43.716;20.668;2023-02-03T15:29:48;9.40;84.50
42989;DHT22;28622;43.716;20.668;2023-02-03T15:32:31;9.40;85.10
42989;DHT22;28622;43.716;20.668;2023-02-03T15:35:00;9.30;84.10
42989;DHT22;28622;43.716;20.668;2023-02-03T15:37:44;9.20;84.80
42989;DHT22;28622;43.716;20.668;2023-02-03T15:40:19;9.20;85.10
42989;DHT22;28622;43.716;20.668;2023-02-03T15:45:54;9.10;86.10
42989;DHT22;28622;43.716;20.668;2023-02-03T15:51:14;8.90;87.00
42989;DHT22;28622;43.716;20.668;2023-02-03T15:56:19;8.70;87.80
42989;DHT22;28622;43.716;20.668;2023-02-03T15:58:47;8.70;88.40
42989;DHT22;28622;43.716;20.668;2023-02-03T16:01:14;8.60;88.70
42989;DHT22;28622;43.716;20.668;2023-02-03T16:03:49;8.60;89.90
42989;DHT22;28622;43.716;20.668;2023-02-03T16:06:28;8.50;90.40
42989;DHT22;28622;43.716;20.668;2023-02-03T16:09:00;8.40;90.60
42989;DHT22;28622;43.716;20.668;2023-02-03T16:11:38;8.40;90.20
42989;DHT22;28622;43.716;20.668;2023-02-03T16:14:07;8.20;90.10
42989;DHT22;28622;43.716;20.668;2023-02-03T16:16:42;8.10;90.30
42989;DHT22;28622;43.716;20.668;2023-02-03T16:19:19;8.00;91.00
42989;DHT22;28622;43.716;20.668;2023-02-03T16:26:54;7.80;92.30
42989;DHT22;28622;43.716;20.668;2023-02-03T16:29:20;7.60;92.50
42989;DHT22;28622;43.716;20.668;2023-02-03T16:32:16;7.60;92.70
42989;DHT22;28622;43.716;20.668;2023-02-03T16:35:01;7.50;93.00
42989;DHT22;28622;43.716;20.668;2023-02-03T16:37:45;7.50;92.80
42989;DHT22;28622;43.716;20.668;2023-02-03T16:40:29;7.40;93.00
42989;DHT22;28622;43.716;20.668;2023-02-03T16:43:15;7.30;93.60
42989;DHT22;28622;43.716;20.668;2023-02-03T16:46:00;7.20;93.60
42989;DHT22;28622;43.716;20.668;2023-02-03T16:48:44;7.20;94.30
42989;DHT22;28622;43.716;20.668;2023-02-03T16:51:37;7.20;96.20
42989;DHT22;28622;43.716;20.668;2023-02-03T16:54:03;7.20;94.90
42989;DHT22;28622;43.716;20.668;2023-02-03T16:56:30;7.20;94.80
42989;DHT22;28622;43.716;20.668;2023-02-03T16:58:55;7.20;94.60
42989;DHT22;28622;43.716;20.668;2023-02-03T17:01:21;7.20;94.10
42989;DHT22;28622;43.716;20.668;2023-02-03T17:03:47;7.20;94.20
42989;DHT22;28622;43.716;20.668;2023-02-03T17:06:13;7.20;94.20
42989;DHT22;28622;43.716;20.668;2023-02-03T17:08:40;7.30;94.00
42989;DHT22;28622;43.716;20.668;2023-02-03T17:11:16;7.30;93.90
42989;DHT22;28622;43.716;20.668;2023-02-03T17:13:43;7.30;94.30
42989;DHT22;28622;43.716;20.668;2023-02-03T17:16:12;7.30;94.80
42989;DHT22;28622;43.716;20.668;2023-02-03T17:18:38;7.30;94.50
42989;DHT22;28622;43.716;20.668;2023-02-03T17:21:07;7.40;94.10
42989;DHT22;28622;43.716;20.668;2023-02-03T17:23:34;7.40;94.30
42989;DHT22;28622;43.716;20.668;2023-02-03T17:26:01;7.40;95.20
42989;DHT22;28622;43.716;20.668;2023-02-03T17:28:27;7.20;94.30
42989;DHT22;28622;43.716;20.668;2023-02-03T17:30:57;7.30;94.30
42989;DHT22;28622;43.716;20.668;2023-02-03T17:33:23;7.20;93.50
42989;DHT22;28622;43.716;20.668;2023-02-03T17:36:05;7.30;94.10
42989;DHT22;28622;43.716;20.668;2023-02-03T17:38:38;7.40;93.80
42989;DHT22;28622;43.716;20.668;2023-02-03T17:41:12;7.40;94.60
42989;DHT22;28622;43.716;20.668;2023-02-03T17:43:39;7.40;93.60
42989;DHT22;28622;43.716;20.668;2023-02-03T17:46:05;7.40;93.90
42989;DHT22;28622;43.716;20.668;2023-02-03T17:48:31;7.40;94.10
42989;DHT22;28622;43.716;20.668;2023-02-03T17:51:13;7.30;93.70
42989;DHT22;28622;43.716;20.668;2023-02-03T17:53:40;7.10;93.70
42989;DHT22;28622;43.716;20.668;2023-02-03T17:56:14;7.00;94.10
42989;DHT22;28622;43.716;20.668;2023-02-03T17:58:41;6.90;94.10
42989;DHT22;28622;43.716;20.668;2023-02-03T18:01:13;6.90;94.20
42989;DHT22;28622;43.716;20.668;2023-02-03T18:03:51;6.90;94.40
42989;DHT22;28622;43.716;20.668;2023-02-03T18:06:19;6.80;94.60
42989;DHT22;28622;43.716;20.668;2023-02-03T18:08:46;6.80;94.70
42989;DHT22;28622;43.716;20.668;2023-02-03T18:11:13;6.90;94.70
42989;DHT22;28622;43.716;20.668;2023-02-03T18:13:42;7.00;95.20
42989;DHT22;28622;43.716;20.668;2023-02-03T18:16:11;7.00;95.40
42989;DHT22;28622;43.716;20.668;2023-02-03T18:18:40;7.00;95.30
42989;DHT22;28622;43.716;20.668;2023-02-03T18:21:07;7.00;95.60
42989;DHT22;28622;43.716;20.668;2023-02-03T18:23:35;7.00;95.80
42989;DHT22;28622;43.716;20.668;2023-02-03T18:26:02;6.90;95.70
42989;DHT22;28622;43.716;20.668;2023-02-03T18:28:28;6.90;95.90
42989;DHT22;28622;43.716;20.668;2023-02-03T18:31:08;7.00;95.80
42989;DHT22;28622;43.716;20.668;2023-02-03T18:33:35;6.90;96.00
42989;DHT22;28622;43.716;20.668;2023-02-03T18:36:02;6.90;95.90
42989;DHT22;28622;43.716;20.668;2023-02-03T18:38:28;7.00;96.50
42989;DHT22;28622;43.716;20.668;2023-02-03T18:41:19;6.90;97.00